sensor_id;sensor_type;location;lat;lon;timestamp;temperature;humidity
71096;DHT22;58753;49.440;11.126;2023-04-15T00:00:03;5.32;93.86
71096;DHT22;58753;49.440;11.126;2023-04-15T00:02:29;5.30;93.91
71096;DHT22;58753;49.440;11.126;2023-04-15T00:04:54;5.33;93.86
71096;DHT22;58753;49.440;11.126;2023-04-15T00:07:19;5.33;93.83
71096;DHT22;58753;49.440;11.126;2023-04-15T00:09:45;5.33;93.91
71096;DHT22;58753;49.440;11.126;2023-04-15T00:12:11;5.35;93.85
71096;DHT22;58753;49.440;11.126;2023-04-15T00:14:36;5.37;93.77
71096;DHT22;58753;49.440;11.126;2023-04-15T00:17:02;5.36;93.85
71096;DHT22;58753;49.440;11.126;2023-04-15T00:19:29;5.35;93.82
71096;DHT22;58753;49.440;11.126;2023-04-15T00:21:54;5.35;93.87
71096;DHT22;58753;49.440;11.126;2023-04-15T00:24:20;5.33;93.81
71096;DHT22;58753;49.440;11.126;2023-04-15T00:26:46;5.36;93.95
71096;DHT22;58753;49.440;11.126;2023-04-15T00:29:11;5.35;93.90
71096;DHT22;58753;49.440;11.126;2023-04-15T00:31:37;5.35;93.94
71096;DHT22;58753;49.440;11.126;2023-04-15T00:34:02;5.36;93.92
71096;DHT22;58753;49.440;11.126;2023-04-15T00:36:28;5.39;94.07
71096;DHT22;58753;49.440;11.126;2023-04-15T00:38:54;5.39;93.96
71096;DHT22;58753;49.440;11.126;2023-04-15T00:41:19;5.43;94.01
71096;DHT22;58753;49.440;11.126;2023-04-15T00:43:45;5.43;93.98
71096;DHT22;58753;49.440;11.126;2023-04-15T00:46:12;5.42;93.97
71096;DHT22;58753;49.440;11.126;2023-04-15T00:48:39;5.42;93.99
71096;DHT22;58753;49.440;11.126;2023-04-15T00:51:04;5.42;93.95
71096;DHT22;58753;49.440;11.126;2023-04-15T00:53:31;5.42;93.99
71096;DHT22;58753;49.440;11.126;2023-04-15T00:55:56;5.40;93.88
71096;DHT22;58753;49.440;11.126;2023-04-15T00:58:22;5.40;93.80
71096;DHT22;58753;49.440;11.126;2023-04-15T01:00:47;5.37;93.78
71096;DHT22;58753;49.440;11.126;2023-04-15T01:03:13;5.39;93.81
71096;DHT22;58753;49.440;11.126;2023-04-15T01:05:39;5.40;93.73
71096;DHT22;58753;49.440;11.126;2023-04-15T01:08:05;5.42;93.75
71096;DHT22;58753;49.440;11.126;2023-04-15T01:10:30;5.44;93.85
71096;DHT22;58753;49.440;11.126;2023-04-15T01:12:56;5.44;93.76
71096;DHT22;58753;49.440;11.126;2023-04-15T01:15:22;5.43;93.72
71096;DHT22;58753;49.440;11.126;2023-04-15T01:17:48;5.44;93.61
71096;DHT22;58753;49.440;11.126;2023-04-15T01:20:13;5.43;93.55
71096;DHT22;58753;49.440;11.126;2023-04-15T01:22:40;5.43;93.57
71096;DHT22;58753;49.440;11.126;2023-04-15T01:25:09;5.46;93.59
71096;DHT22;58753;49.440;11.126;2023-04-15T01:27:38;5.44;93.61
71096;DHT22;58753;49.440;11.126;2023-04-15T01:30:06;5.46;93.46
71096;DHT22;58753;49.440;11.126;2023-04-15T01:32:32;5.47;93.42
71096;DHT22;58753;49.440;11.126;2023-04-15T01:34:57;5.46;93.16
71096;DHT22;58753;49.440;11.126;2023-04-15T01:37:23;5.50;92.94
71096;DHT22;58753;49.440;11.126;2023-04-15T01:39:49;5.50;92.98
71096;DHT22;58753;49.440;11.126;2023-04-15T01:42:14;5.50;92.90
71096;DHT22;58753;49.440;11.126;2023-04-15T01:44:39;5.53;92.70
71096;DHT22;58753;49.440;11.126;2023-04-15T01:47:05;5.53;92.55
71096;DHT22;58753;49.440;11.126;2023-04-15T01:49:31;5.56;92.38
71096;DHT22;58753;49.440;11.126;2023-04-15T01:51:56;5.57;92.28
71096;DHT22;58753;49.440;11.126;2023-04-15T01:54:22;5.59;92.05
71096;DHT22;58753;49.440;11.126;2023-04-15T01:56:47;5.59;91.89
71096;DHT22;58753;49.440;11.126;2023-04-15T01:59:12;5.61;91.72
71096;DHT22;58753;49.440;11.126;2023-04-15T02:01:38;5.61;91.65
71096;DHT22;58753;49.440;11.126;2023-04-15T02:04:05;5.63;91.56
71096;DHT22;58753;49.440;11.126;2023-04-15T02:06:31;5.63;91.45
71096;DHT22;58753;49.440;11.126;2023-04-15T02:08:56;5.67;91.32
71096;DHT22;58753;49.440;11.126;2023-04-15T02:11:23;5.67;91.13
71096;DHT22;58753;49.440;11.126;2023-04-15T02:13:48;5.66;91.06
71096;DHT22;58753;49.440;11.126;2023-04-15T02:16:15;5.66;90.94
71096;DHT22;58753;49.440;11.126;2023-04-15T02:18:43;5.66;90.84
71096;DHT22;58753;49.440;11.126;2023-04-15T02:21:08;5.63;90.76
71096;DHT22;58753;49.440;11.126;2023-04-15T02:23:33;5.63;90.76
71096;DHT22;58753;49.440;11.126;2023-04-15T02:25:59;5.63;90.79
71096;DHT22;58753;49.440;11.126;2023-04-15T02:28:24;5.64;90.74
71096;DHT22;58753;49.440;11.126;2023-04-15T02:30:51;5.63;90.66
71096;DHT22;58753;49.440;11.126;2023-04-15T02:33:18;5.63;90.58
71096;DHT22;58753;49.440;11.126;2023-04-15T02:35:44;5.63;90.53
71096;DHT22;58753;49.440;11.126;2023-04-15T02:38:10;5.61;90.47
71096;DHT22;58753;49.440;11.126;2023-04-15T02:40:36;5.57;90.58
71096;DHT22;58753;49.440;11.126;2023-04-15T02:43:01;5.61;90.56
71096;DHT22;58753;49.440;11.126;2023-04-15T02:45:27;5.60;90.45
71096;DHT22;58753;49.440;11.126;2023-04-15T02:47:53;5.59;90.48
71096;DHT22;58753;49.440;11.126;2023-04-15T02:50:19;5.57;90.58
71096;DHT22;58753;49.440;11.126;2023-04-15T02:52:45;5.60;90.58
71096;DHT22;58753;49.440;11.126;2023-04-15T02:55:11;5.63;90.57
71096;DHT22;58753;49.440;11.126;2023-04-15T02:57:37;5.60;90.54
71096;DHT22;58753;49.440;11.126;2023-04-15T03:00:04;5.57;90.49
71096;DHT22;58753;49.440;11.126;2023-04-15T03:02:37;5.59;90.52
71096;DHT22;58753;49.440;11.126;2023-04-15T03:05:03;5.61;90.52
71096;DHT22;58753;49.440;11.126;2023-04-15T03:07:30;5.61;90.52
71096;DHT22;58753;49.440;11.126;2023-04-15T03:09:55;5.60;90.50
71096;DHT22;58753;49.440;11.126;2023-04-15T03:12:21;5.64;90.53
71096;DHT22;58753;49.440;11.126;2023-04-15T03:14:46;5.61;90.45
71096;DHT22;58753;49.440;11.126;2023-04-15T03:17:12;5.60;90.40
71096;DHT22;58753;49.440;11.126;2023-04-15T03:19:37;5.60;90.45
71096;DHT22;58753;49.440;11.126;2023-04-15T03:22:02;5.61;90.43
71096;DHT22;58753;49.440;11.126;2023-04-15T03:24:28;5.60;90.29
71096;DHT22;58753;49.440;11.126;2023-04-15T03:26:55;5.64;90.31
71096;DHT22;58753;49.440;11.126;2023-04-15T03:29:20;5.64;90.35
71096;DHT22;58753;49.440;11.126;2023-04-15T03:31:45;5.66;90.23
71096;DHT22;58753;49.440;11.126;2023-04-15T03:34:11;5.66;90.23
71096;DHT22;58753;49.440;11.126;2023-04-15T03:36:36;5.66;90.17
71096;DHT22;58753;49.440;11.126;2023-04-15T03:39:02;5.66;90.11
71096;DHT22;58753;49.440;11.126;2023-04-15T03:41:28;5.71;90.11
71096;DHT22;58753;49.440;11.126;2023-04-15T03:43:53;5.70;89.99
71096;DHT22;58753;49.440;11.126;2023-04-15T03:46:19;5.70;89.93
71096;DHT22;58753;49.440;11.126;2023-04-15T03:48:46;5.73;89.88
71096;DHT22;58753;49.440;11.126;2023-04-15T03:51:11;5.77;89.83
71096;DHT22;58753;49.440;11.126;2023-04-15T03:53:37;5.80;89.64
71096;DHT22;58753;49.440;11.126;2023-04-15T03:56:02;5.78;89.50
71096;DHT22;58753;49.440;11.126;2023-04-15T03:58:27;5.78;89.45
71096;DHT22;58753;49.440;11.126;2023-04-15T04:00:53;5.81;89.48
71096;DHT22;58753;49.440;11.126;2023-04-15T04:03:19;5.81;89.44
71096;DHT22;58753;49.440;11.126;2023-04-15T04:05:44;5.83;89.42
71096;DHT22;58753;49.440;11.126;2023-04-15T04:08:10;5.80;89.34
71096;DHT22;58753;49.440;11.126;2023-04-15T04:10:38;5.83;89.19
71096;DHT22;58753;49.440;11.126;2023-04-15T04:13:03;5.83;89.15
71096;DHT22;58753;49.440;11.126;2023-04-15T04:15:28;5.81;89.06
71096;DHT22;58753;49.440;11.126;2023-04-15T04:17:54;5.80;89.03
71096;DHT22;58753;49.440;11.126;2023-04-15T04:20:20;5.84;89.00
71096;DHT22;58753;49.440;11.126;2023-04-15T04:22:45;5.86;88.92
71096;DHT22;58753;49.440;11.126;2023-04-15T04:25:11;5.86;88.88
71096;DHT22;58753;49.440;11.126;2023-04-15T04:27:36;5.87;88.76
71096;DHT22;58753;49.440;11.126;2023-04-15T04:30:02;5.87;88.74
71096;DHT22;58753;49.440;11.126;2023-04-15T04:32:28;5.87;88.76
71096;DHT22;58753;49.440;11.126;2023-04-15T04:34:53;5.89;88.66
71096;DHT22;58753;49.440;11.126;2023-04-15T04:37:18;5.87;88.61
71096;DHT22;58753;49.440;11.126;2023-04-15T04:39:44;5.87;88.58
71096;DHT22;58753;49.440;11.126;2023-04-15T04:42:09;5.91;88.52
71096;DHT22;58753;49.440;11.126;2023-04-15T04:44:35;5.93;88.45
71096;DHT22;58753;49.440;11.126;2023-04-15T04:47:00;5.91;88.43
71096;DHT22;58753;49.440;11.126;2023-04-15T04:49:25;5.93;88.24
71096;DHT22;58753;49.440;11.126;2023-04-15T04:51:51;5.94;88.23
71096;DHT22;58753;49.440;11.126;2023-04-15T04:54:16;5.95;88.11
71096;DHT22;58753;49.440;11.126;2023-04-15T04:56:42;5.98;87.91
71096;DHT22;58753;49.440;11.126;2023-04-15T04:59:07;6.00;87.88
71096;DHT22;58753;49.440;11.126;2023-04-15T05:01:33;6.05;87.68
71096;DHT22;58753;49.440;11.126;2023-04-15T05:03:59;6.07;87.57
71096;DHT22;58753;49.440;11.126;2023-04-15T05:06:24;6.07;87.56
71096;DHT22;58753;49.440;11.126;2023-04-15T05:08:50;6.07;87.51
71096;DHT22;58753;49.440;11.126;2023-04-15T05:11:16;6.08;87.50
71096;DHT22;58753;49.440;11.126;2023-04-15T05:13:41;6.10;87.33
71096;DHT22;58753;49.440;11.126;2023-04-15T05:16:06;6.15;87.31
71096;DHT22;58753;49.440;11.126;2023-04-15T05:18:32;6.17;87.29
71096;DHT22;58753;49.440;11.126;2023-04-15T05:20:58;6.18;87.16
71096;DHT22;58753;49.440;11.126;2023-04-15T05:23:23;6.20;86.94
71096;DHT22;58753;49.440;11.126;2023-04-15T05:25:49;6.22;86.96
71096;DHT22;58753;49.440;11.126;2023-04-15T05:28:14;6.24;86.85
71096;DHT22;58753;49.440;11.126;2023-04-15T05:30:39;6.25;86.83
71096;DHT22;58753;49.440;11.126;2023-04-15T05:33:05;6.29;86.81
71096;DHT22;58753;49.440;11.126;2023-04-15T05:35:30;6.31;86.56
71096;DHT22;58753;49.440;11.126;2023-04-15T05:37:56;6.38;86.57
71096;DHT22;58753;49.440;11.126;2023-04-15T05:40:21;6.36;86.38
71096;DHT22;58753;49.440;11.126;2023-04-15T05:42:47;6.42;86.34
71096;DHT22;58753;49.440;11.126;2023-04-15T05:45:12;6.46;86.19
71096;DHT22;58753;49.440;11.126;2023-04-15T05:47:37;6.46;85.96
71096;DHT22;58753;49.440;11.126;2023-04-15T05:50:03;6.48;86.09
71096;DHT22;58753;49.440;11.126;2023-04-15T05:52:30;6.49;86.00
71096;DHT22;58753;49.440;11.126;2023-04-15T05:54:55;6.48;86.01
71096;DHT22;58753;49.440;11.126;2023-04-15T05:57:21;6.45;85.80
71096;DHT22;58753;49.440;11.126;2023-04-15T05:59:47;6.45;85.90
71096;DHT22;58753;49.440;11.126;2023-04-15T06:02:13;6.44;85.87
71096;DHT22;58753;49.440;11.126;2023-04-15T06:04:38;6.39;85.69
71096;DHT22;58753;49.440;11.126;2023-04-15T06:07:04;6.38;85.81
71096;DHT22;58753;49.440;11.126;2023-04-15T06:09:30;6.36;86.00
71096;DHT22;58753;49.440;11.126;2023-04-15T06:11:55;6.36;86.03
71096;DHT22;58753;49.440;11.126;2023-04-15T06:14:22;6.31;85.93
71096;DHT22;58753;49.440;11.126;2023-04-15T06:16:47;6.29;86.23
71096;DHT22;58753;49.440;11.126;2023-04-15T06:19:13;6.26;86.20
71096;DHT22;58753;49.440;11.126;2023-04-15T06:21:38;6.28;86.41
71096;DHT22;58753;49.440;11.126;2023-04-15T06:24:04;6.29;86.75
71096;DHT22;58753;49.440;11.126;2023-04-15T06:26:29;6.35;86.71
71096;DHT22;58753;49.440;11.126;2023-04-15T06:28:55;6.38;86.72
71096;DHT22;58753;49.440;11.126;2023-04-15T06:31:21;6.42;86.77
71096;DHT22;58753;49.440;11.126;2023-04-15T06:33:46;6.44;86.64
71096;DHT22;58753;49.440;11.126;2023-04-15T06:36:12;6.45;86.71
71096;DHT22;58753;49.440;11.126;2023-04-15T06:38:37;6.45;86.84
71096;DHT22;58753;49.440;11.126;2023-04-15T06:41:03;6.46;86.64
71096;DHT22;58753;49.440;11.126;2023-04-15T06:43:29;6.48;86.78
71096;DHT22;58753;49.440;11.126;2023-04-15T06:45:55;6.48;86.89
71096;DHT22;58753;49.440;11.126;2023-04-15T06:48:21;6.53;86.95
71096;DHT22;58753;49.440;11.126;2023-04-15T06:50:47;6.59;87.02
71096;DHT22;58753;49.440;11.126;2023-04-15T06:53:13;6.63;87.32
71096;DHT22;58753;49.440;11.126;2023-04-15T06:55:38;6.66;87.06
71096;DHT22;58753;49.440;11.126;2023-04-15T06:58:04;6.63;87.08
71096;DHT22;58753;49.440;11.126;2023-04-15T07:00:30;6.66;87.30
71096;DHT22;58753;49.440;11.126;2023-04-15T07:02:57;6.69;87.37
71096;DHT22;58753;49.440;11.126;2023-04-15T07:05:23;6.77;87.60
71096;DHT22;58753;49.440;11.126;2023-04-15T07:07:49;6.80;87.54
71096;DHT22;58753;49.440;11.126;2023-04-15T07:10:15;6.86;87.37
71096;DHT22;58753;49.440;11.126;2023-04-15T07:12:40;6.92;87.67
71096;DHT22;58753;49.440;11.126;2023-04-15T07:15:06;6.95;87.39
71096;DHT22;58753;49.440;11.126;2023-04-15T07:17:31;6.95;87.41
71096;DHT22;58753;49.440;11.126;2023-04-15T07:19:57;7.00;87.47
71096;DHT22;58753;49.440;11.126;2023-04-15T07:22:22;7.00;87.45
71096;DHT22;58753;49.440;11.126;2023-04-15T07:24:48;7.11;87.71
71096;DHT22;58753;49.440;11.126;2023-04-15T07:27:13;7.18;87.47
71096;DHT22;58753;49.440;11.126;2023-04-15T07:29:39;7.24;87.14
71096;DHT22;58753;49.440;11.126;2023-04-15T07:32:04;7.31;87.44
71096;DHT22;58753;49.440;11.126;2023-04-15T07:34:30;7.38;87.24
71096;DHT22;58753;49.440;11.126;2023-04-15T07:36:56;7.46;86.81
71096;DHT22;58753;49.440;11.126;2023-04-15T07:39:21;7.38;86.38
71096;DHT22;58753;49.440;11.126;2023-04-15T07:41:47;7.43;86.76
71096;DHT22;58753;49.440;11.126;2023-04-15T07:44:13;7.41;86.22
71096;DHT22;58753;49.440;11.126;2023-04-15T07:46:39;7.41;86.39
71096;DHT22;58753;49.440;11.126;2023-04-15T07:49:04;7.46;85.69
71096;DHT22;58753;49.440;11.126;2023-04-15T07:51:30;7.43;85.78
71096;DHT22;58753;49.440;11.126;2023-04-15T07:53:56;7.48;85.83
71096;DHT22;58753;49.440;11.126;2023-04-15T07:56:21;7.47;85.04
71096;DHT22;58753;49.440;11.126;2023-04-15T07:58:47;7.43;85.02
71096;DHT22;58753;49.440;11.126;2023-04-15T08:01:12;7.41;84.96
71096;DHT22;58753;49.440;11.126;2023-04-15T08:03:38;7.34;84.68
71096;DHT22;58753;49.440;11.126;2023-04-15T08:06:03;7.32;84.60
71096;DHT22;58753;49.440;11.126;2023-04-15T08:08:29;7.34;84.81
71096;DHT22;58753;49.440;11.126;2023-04-15T08:10:55;7.37;85.07
71096;DHT22;58753;49.440;11.126;2023-04-15T08:13:21;7.46;85.03
71096;DHT22;58753;49.440;11.126;2023-04-15T08:16:12;7.38;84.53
71096;DHT22;58753;49.440;11.126;2023-04-15T08:18:37;7.35;84.64
71096;DHT22;58753;49.440;11.126;2023-04-15T08:21:03;7.32;84.34
71096;DHT22;58753;49.440;11.126;2023-04-15T08:23:28;7.30;84.10
71096;DHT22;58753;49.440;11.126;2023-04-15T08:25:54;7.26;84.38
71096;DHT22;58753;49.440;11.126;2023-04-15T08:28:19;7.28;84.67
71096;DHT22;58753;49.440;11.126;2023-04-15T08:30:45;7.28;84.48
71096;DHT22;58753;49.440;11.126;2023-04-15T08:33:10;7.20;84.63
71096;DHT22;58753;49.440;11.126;2023-04-15T08:35:36;7.23;84.95
71096;DHT22;58753;49.440;11.126;2023-04-15T08:38:01;7.18;84.72
71096;DHT22;58753;49.440;11.126;2023-04-15T08:40:33;7.24;85.12
71096;DHT22;58753;49.440;11.126;2023-04-15T08:43:02;7.14;84.76
71096;DHT22;58753;49.440;11.126;2023-04-15T08:45:28;7.10;84.56
71096;DHT22;58753;49.440;11.126;2023-04-15T08:47:54;7.08;84.78
71096;DHT22;58753;49.440;11.126;2023-04-15T08:50:23;7.11;84.98
71096;DHT22;58753;49.440;11.126;2023-04-15T08:52:53;7.07;84.37
71096;DHT22;58753;49.440;11.126;2023-04-15T08:55:20;7.07;83.84
71096;DHT22;58753;49.440;11.126;2023-04-15T08:57:45;7.07;84.08
71096;DHT22;58753;49.440;11.126;2023-04-15T09:00:11;7.04;83.48
71096;DHT22;58753;49.440;11.126;2023-04-15T09:02:38;7.10;84.15
71096;DHT22;58753;49.440;11.126;2023-04-15T09:05:04;7.16;84.09
71096;DHT22;58753;49.440;11.126;2023-04-15T09:07:33;7.30;84.33
71096;DHT22;58753;49.440;11.126;2023-04-15T09:09:59;7.35;84.21
71096;DHT22;58753;49.440;11.126;2023-04-15T09:12:25;7.47;84.38
71096;DHT22;58753;49.440;11.126;2023-04-15T09:14:51;7.51;84.27
71096;DHT22;58753;49.440;11.126;2023-04-15T09:17:18;7.57;84.20
71096;DHT22;58753;49.440;11.126;2023-04-15T09:19:45;7.67;84.14
71096;DHT22;58753;49.440;11.126;2023-04-15T09:22:11;7.79;83.85
71096;DHT22;58753;49.440;11.126;2023-04-15T09:24:38;7.83;83.40
71096;DHT22;58753;49.440;11.126;2023-04-15T09:27:06;7.82;83.42
71096;DHT22;58753;49.440;11.126;2023-04-15T09:29:31;7.85;82.89
71096;DHT22;58753;49.440;11.126;2023-04-15T09:32:09;7.85;82.97
71096;DHT22;58753;49.440;11.126;2023-04-15T09:34:35;7.82;82.47
71096;DHT22;58753;49.440;11.126;2023-04-15T09:37:02;7.81;82.83
71096;DHT22;58753;49.440;11.126;2023-04-15T09:39:44;7.85;82.92
71096;DHT22;58753;49.440;11.126;2023-04-15T09:42:09;7.82;82.78
71096;DHT22;58753;49.440;11.126;2023-04-15T09:44:36;7.74;82.45
71096;DHT22;58753;49.440;11.126;2023-04-15T09:47:01;7.71;82.70
71096;DHT22;58753;49.440;11.126;2023-04-15T09:49:27;7.68;83.18
71096;DHT22;58753;49.440;11.126;2023-04-15T09:51:57;7.60;82.40
71096;DHT22;58753;49.440;11.126;2023-04-15T09:54:23;7.50;82.95
71096;DHT22;58753;49.440;11.126;2023-04-15T09:56:49;7.46;83.41
71096;DHT22;58753;49.440;11.126;2023-04-15T09:59:15;7.38;82.99
71096;DHT22;58753;49.440;11.126;2023-04-15T10:01:41;7.32;83.62
71096;DHT22;58753;49.440;11.126;2023-04-15T10:04:07;7.31;84.18
71096;DHT22;58753;49.440;11.126;2023-04-15T10:06:33;7.31;83.95
71096;DHT22;58753;49.440;11.126;2023-04-15T10:08:59;7.34;84.41
71096;DHT22;58753;49.440;11.126;2023-04-15T10:11:28;7.41;84.58
71096;DHT22;58753;49.440;11.126;2023-04-15T10:13:55;7.44;84.67
71096;DHT22;58753;49.440;11.126;2023-04-15T10:16:22;7.38;84.57
71096;DHT22;58753;49.440;11.126;2023-04-15T10:18:55;7.26;84.43
71096;DHT22;58753;49.440;11.126;2023-04-15T10:21:21;7.14;84.54
71096;DHT22;58753;49.440;11.126;2023-04-15T10:23:48;7.16;85.00
71096;DHT22;58753;49.440;11.126;2023-04-15T10:26:15;7.13;85.15
71096;DHT22;58753;49.440;11.126;2023-04-15T10:28:41;7.14;85.45
71096;DHT22;58753;49.440;11.126;2023-04-15T10:31:07;7.24;85.93
71096;DHT22;58753;49.440;11.126;2023-04-15T10:33:35;7.41;86.22
71096;DHT22;58753;49.440;11.126;2023-04-15T10:36:03;7.37;85.07
71096;DHT22;58753;49.440;11.126;2023-04-15T10:43:47;7.41;85.44
71096;DHT22;58753;49.440;11.126;2023-04-15T10:46:17;7.41;85.06
71096;DHT22;58753;49.440;11.126;2023-04-15T10:48:49;7.41;84.90
71096;DHT22;58753;49.440;11.126;2023-04-15T10:51:15;7.50;85.26
71096;DHT22;58753;49.440;11.126;2023-04-15T10:53:41;7.57;84.85
71096;DHT22;58753;49.440;11.126;2023-04-15T10:56:07;7.65;84.79
71096;DHT22;58753;49.440;11.126;2023-04-15T10:58:42;7.85;84.71
71096;DHT22;58753;49.440;11.126;2023-04-15T11:01:08;7.96;84.59
71096;DHT22;58753;49.440;11.126;2023-04-15T11:03:41;8.10;84.43
71096;DHT22;58753;49.440;11.126;2023-04-15T11:06:07;8.12;84.21
71096;DHT22;58753;49.440;11.126;2023-04-15T11:08:54;7.98;83.80
71096;DHT22;58753;49.440;11.126;2023-04-15T11:11:20;7.91;83.40
71096;DHT22;58753;49.440;11.126;2023-04-15T11:13:47;7.75;83.19
71096;DHT22;58753;49.440;11.126;2023-04-15T11:16:13;7.57;83.61
71096;DHT22;58753;49.440;11.126;2023-04-15T11:18:38;7.54;83.91
71096;DHT22;58753;49.440;11.126;2023-04-15T11:21:05;7.46;83.85
71096;DHT22;58753;49.440;11.126;2023-04-15T11:23:37;7.47;84.06
71096;DHT22;58753;49.440;11.126;2023-04-15T11:26:04;7.44;84.46
71096;DHT22;58753;49.440;11.126;2023-04-15T11:28:32;7.43;84.36
71096;DHT22;58753;49.440;11.126;2023-04-15T11:31:02;7.44;84.24
71096;DHT22;58753;49.440;11.126;2023-04-15T11:33:30;7.38;84.21
71096;DHT22;58753;49.440;11.126;2023-04-15T11:35:55;7.35;84.61
71096;DHT22;58753;49.440;11.126;2023-04-15T11:38:21;7.38;84.75
71096;DHT22;58753;49.440;11.126;2023-04-15T11:40:47;7.43;84.76
71096;DHT22;58753;49.440;11.126;2023-04-15T11:45:54;7.68;84.68
71096;DHT22;58753;49.440;11.126;2023-04-15T11:48:27;8.09;85.18
71096;DHT22;58753;49.440;11.126;2023-04-15T11:50:58;8.21;83.76
71096;DHT22;58753;49.440;11.126;2023-04-15T11:53:25;8.21;82.92
71096;DHT22;58753;49.440;11.126;2023-04-15T11:55:59;8.17;82.96
71096;DHT22;58753;49.440;11.126;2023-04-15T11:58:25;8.09;82.41
71096;DHT22;58753;49.440;11.126;2023-04-15T12:00:59;8.06;82.47
71096;DHT22;58753;49.440;11.126;2023-04-15T12:03:25;8.21;82.82
71096;DHT22;58753;49.440;11.126;2023-04-15T12:13:53;8.16;81.77
71096;DHT22;58753;49.440;11.126;2023-04-15T12:16:19;8.19;82.08
71096;DHT22;58753;49.440;11.126;2023-04-15T12:18:45;8.17;81.25
71096;DHT22;58753;49.440;11.126;2023-04-15T12:21:11;8.19;81.31
71096;DHT22;58753;49.440;11.126;2023-04-15T12:23:38;8.12;80.97
71096;DHT22;58753;49.440;11.126;2023-04-15T12:26:04;8.03;80.73
71096;DHT22;58753;49.440;11.126;2023-04-15T12:28:31;7.98;81.05
71096;DHT22;58753;49.440;11.126;2023-04-15T12:30:56;7.92;81.32
71096;DHT22;58753;49.440;11.126;2023-04-15T12:33:22;7.98;81.60
71096;DHT22;58753;49.440;11.126;2023-04-15T12:35:47;7.99;81.62
71096;DHT22;58753;49.440;11.126;2023-04-15T12:38:13;8.07;81.48
71096;DHT22;58753;49.440;11.126;2023-04-15T12:40:38;8.26;81.75
71096;DHT22;58753;49.440;11.126;2023-04-15T12:43:03;8.33;81.13
71096;DHT22;58753;49.440;11.126;2023-04-15T12:45:29;8.32;79.98
71096;DHT22;58753;49.440;11.126;2023-04-15T12:47:54;8.34;80.27
71096;DHT22;58753;49.440;11.126;2023-04-15T12:50:20;8.42;79.75
71096;DHT22;58753;49.440;11.126;2023-04-15T12:52:45;8.52;79.88
71096;DHT22;58753;49.440;11.126;2023-04-15T12:55:10;8.66;79.55
71096;DHT22;58753;49.440;11.126;2023-04-15T12:57:36;8.68;79.14
71096;DHT22;58753;49.440;11.126;2023-04-15T13:00:01;8.64;79.19
71096;DHT22;58753;49.440;11.126;2023-04-15T13:02:30;8.56;78.74
71096;DHT22;58753;49.440;11.126;2023-04-15T13:04:56;8.50;78.82
71096;DHT22;58753;49.440;11.126;2023-04-15T13:07:21;8.39;78.94
71096;DHT22;58753;49.440;11.126;2023-04-15T13:09:46;8.32;79.25
71096;DHT22;58753;49.440;11.126;2023-04-15T13:12:12;8.33;79.24
71096;DHT22;58753;49.440;11.126;2023-04-15T13:14:38;8.33;79.35
71096;DHT22;58753;49.440;11.126;2023-04-15T13:17:04;8.33;79.14
71096;DHT22;58753;49.440;11.126;2023-04-15T13:19:34;8.36;79.25
71096;DHT22;58753;49.440;11.126;2023-04-15T13:22:01;8.46;79.29
71096;DHT22;58753;49.440;11.126;2023-04-15T13:24:26;8.60;79.61
71096;DHT22;58753;49.440;11.126;2023-04-15T13:26:51;8.56;78.82
71096;DHT22;58753;49.440;11.126;2023-04-15T13:29:17;8.56;78.86
71096;DHT22;58753;49.440;11.126;2023-04-15T13:31:43;8.59;78.87
71096;DHT22;58753;49.440;11.126;2023-04-15T13:34:08;8.56;78.88
71096;DHT22;58753;49.440;11.126;2023-04-15T13:36:33;8.50;78.87
71096;DHT22;58753;49.440;11.126;2023-04-15T13:38:59;8.44;78.73
71096;DHT22;58753;49.440;11.126;2023-04-15T13:41:24;8.36;78.90
71096;DHT22;58753;49.440;11.126;2023-04-15T13:43:50;8.34;79.06
71096;DHT22;58753;49.440;11.126;2023-04-15T13:46:15;8.30;78.99
71096;DHT22;58753;49.440;11.126;2023-04-15T13:48:41;8.29;78.99
71096;DHT22;58753;49.440;11.126;2023-04-15T13:51:06;8.30;79.27
71096;DHT22;58753;49.440;11.126;2023-04-15T13:53:32;8.29;79.52
71096;DHT22;58753;49.440;11.126;2023-04-15T13:55:58;8.39;79.64
71096;DHT22;58753;49.440;11.126;2023-04-15T13:58:23;8.43;79.38
71096;DHT22;58753;49.440;11.126;2023-04-15T14:00:48;8.46;79.45
71096;DHT22;58753;49.440;11.126;2023-04-15T14:03:14;8.53;79.53
71096;DHT22;58753;49.440;11.126;2023-04-15T14:05:39;8.52;79.46
71096;DHT22;58753;49.440;11.126;2023-04-15T14:08:05;8.54;79.58
71096;DHT22;58753;49.440;11.126;2023-04-15T14:10:30;8.57;79.60
71096;DHT22;58753;49.440;11.126;2023-04-15T14:12:56;8.56;79.50
71096;DHT22;58753;49.440;11.126;2023-04-15T14:15:21;8.59;79.59
71096;DHT22;58753;49.440;11.126;2023-04-15T14:17:46;8.54;79.68
71096;DHT22;58753;49.440;11.126;2023-04-15T14:20:12;8.52;79.77
71096;DHT22;58753;49.440;11.126;2023-04-15T14:22:37;8.44;79.95
71096;DHT22;58753;49.440;11.126;2023-04-15T14:25:04;8.40;80.01
71096;DHT22;58753;49.440;11.126;2023-04-15T14:27:30;8.34;80.24
71096;DHT22;58753;49.440;11.126;2023-04-15T14:29:55;8.36;80.36
71096;DHT22;58753;49.440;11.126;2023-04-15T14:32:24;8.25;80.54
71096;DHT22;58753;49.440;11.126;2023-04-15T14:34:49;8.26;80.83
71096;DHT22;58753;49.440;11.126;2023-04-15T14:37:15;8.26;80.90
71096;DHT22;58753;49.440;11.126;2023-04-15T14:39:40;8.25;81.07
71096;DHT22;58753;49.440;11.126;2023-04-15T14:42:06;8.26;81.28
71096;DHT22;58753;49.440;11.126;2023-04-15T14:44:31;8.25;81.12
71096;DHT22;58753;49.440;11.126;2023-04-15T14:46:56;8.19;81.27
71096;DHT22;58753;49.440;11.126;2023-04-15T14:49:22;8.17;81.36
71096;DHT22;58753;49.440;11.126;2023-04-15T14:51:47;8.17;81.75
71096;DHT22;58753;49.440;11.126;2023-04-15T14:54:13;8.19;81.94
71096;DHT22;58753;49.440;11.126;2023-04-15T14:56:38;8.23;81.95
71096;DHT22;58753;49.440;11.126;2023-04-15T14:59:03;8.22;82.12
71096;DHT22;58753;49.440;11.126;2023-04-15T15:01:29;8.21;82.22
71096;DHT22;58753;49.440;11.126;2023-04-15T15:03:55;8.19;82.39
71096;DHT22;58753;49.440;11.126;2023-04-15T15:06:20;8.14;82.45
71096;DHT22;58753;49.440;11.126;2023-04-15T15:08:47;8.10;82.45
71096;DHT22;58753;49.440;11.126;2023-04-15T15:11:13;8.06;82.59
71096;DHT22;58753;49.440;11.126;2023-04-15T15:13:38;8.01;82.80
71096;DHT22;58753;49.440;11.126;2023-04-15T15:16:04;7.99;82.95
71096;DHT22;58753;49.440;11.126;2023-04-15T15:18:29;7.91;83.01
71096;DHT22;58753;49.440;11.126;2023-04-15T15:20:55;7.89;83.32
71096;DHT22;58753;49.440;11.126;2023-04-15T15:23:20;7.86;83.42
71096;DHT22;58753;49.440;11.126;2023-04-15T15:25:46;7.83;83.61
71096;DHT22;58753;49.440;11.126;2023-04-15T15:28:11;7.79;83.89
71096;DHT22;58753;49.440;11.126;2023-04-15T15:30:37;7.78;84.24
71096;DHT22;58753;49.440;11.126;2023-04-15T15:33:02;7.75;84.49
71096;DHT22;58753;49.440;11.126;2023-04-15T15:35:28;7.70;84.64
71096;DHT22;58753;49.440;11.126;2023-04-15T15:37:53;7.61;84.82